Landels-Hill Big Creek Reserve Entrance, California Weather observations

Data are for 10 minute period ending at time listed.
 Day   Time   Solar   Ave.   Ave.  Ave.  Vector  Max.   Baro.   Total    
  of    of     Rad.   Air    Rel.  Wind   Wind   Wind  Press.  Precip.   
Year   Day            Temp.  Hum.  Speed  Dir.   Gust                    
2016   (PST)  Kw/m2    F      %     mph   deg.    mph    mb.     in.     
-------------------------------------------------------------------------
 177   17:50   0.05   58.0    76    1.8   275     5.0   1008.0    0.00 
 177   18:00   0.05   57.6    77    1.7   292     4.8   1007.9    0.00 
 177   18:10   0.04   58.0    76    1.7   295     4.7   1007.8    0.00 
 177   18:20   0.04   58.1    76    0.4   285     2.4   1007.7    0.00 
 177   18:30   0.03   57.7    76    1.7   280     6.7   1007.7    0.00 
 177   18:40   0.03   57.4    77    2.6   279     5.0   1007.8    0.00 
 177   18:50   0.03   57.4    77    0.7   289     2.7   1007.8    0.00 
 177   19:00   0.01   57.3    78    0.5   300     1.9   1007.9    0.00 
 177   19:10   0.01   57.0    78    0.2   345     1.0   1007.9    0.00 
 177   19:20   0.01   56.7    79    0.9   314     2.2   1007.9    0.00 
 177   19:30   0.01   56.3    80    0.2    11     1.2   1008.0    0.00 
 177   19:40   0.01   55.9    81    0.2    25     1.4   1008.0    0.00 
 177   19:50   0.01   55.5    82    0.6   167     2.2   1007.9    0.00 
 177   20:00   0.00   55.3    82    0.2    70     1.3   1008.0    0.00 
 177   20:10   0.00   55.0    83    0.4   247     1.9   1008.3    0.00 
 177   20:20   0.00   55.2    83    1.4    33     3.3   1008.2    0.00 
 177   20:30   0.00   55.4    83    0.5    59     2.1   1008.2    0.00 
 177   20:40   0.00   55.2    83    0.2   254     1.4   1008.6    0.00 
 177   20:50   0.00   54.9    83    0.5    15     2.6   1008.9    0.00 
 177   21:00   0.00   54.6    84    0.7     1     3.5   1008.9    0.00 
 177   21:10   0.00   54.5    84    0.7     1     2.6   1009.1    0.00 
 177   21:20   0.00   54.1    84    0.5     2     2.0   1009.2    0.00 
 177   21:30   0.00   54.0    85    0.9    11     3.1   1009.1    0.00 
 177   21:40   0.00   54.1    85    0.1   359     0.9   1009.3    0.00 
 177   21:50   0.00   53.9    85    0.6    33     2.8   1009.3    0.00 
 177   22:00   0.00   54.1    86    2.0   114     4.9   1009.1    0.00 
 177   22:10   0.00   54.8    84    0.9   329     2.9   1009.2    0.00 
 177   22:20   0.00   54.7    83    1.0     2     2.3   1009.1    0.00 
 177   22:30   0.00   54.7    84    1.5   116     3.8   1008.9    0.00 
 177   22:40   0.00   55.0    82    1.2     3     3.0   1009.0    0.00 
 177   22:50   0.00   54.9    82    1.9    16     4.2   1009.1    0.00 
 177   23:00   0.00   54.9    82    1.4    97     3.1   1009.2    0.00 
 177   23:10   0.00   54.6    82    0.3   146     1.7   1009.3    0.00 
 177   23:20   0.00   54.0    84    0.4    22     1.6   1009.3    0.00 
 177   23:30   0.00   53.5    85    1.1    42     3.4   1009.4    0.00 
 177   23:40   0.00   53.0    86    2.5    11     5.0   1009.4    0.00 
 177   23:50   0.00   53.1    86    2.0    41     4.7   1009.2    0.00 
 178    0:00   0.00   53.5    85    0.6    54     2.6   1009.3    0.00 
 178    0:10   0.00   53.6    84    0.6    13     2.2   1009.3    0.00 
 178    0:20   0.00   53.2    85    1.1    10     3.4   1009.3    0.00 
 178    0:30   0.00   53.0    85    1.3    17     3.0   1009.4    0.00 
 178    0:40   0.00   52.7    86    0.7    37     2.6   1009.3    0.00 
 178    0:50   0.00   52.6    86    0.1   310     0.8   1009.3    0.00 
 178    1:00   0.00   52.4    86    0.4    25     2.3   1009.2    0.00 
 178    1:10   0.00   52.0    86    0.2     4     1.7   1009.0    0.00 
 178    1:20   0.00   52.4    86    1.0   124     4.7   1009.1    0.00 
 178    1:30   0.00   52.7    86    0.7    35     2.2   1009.1    0.00 
 178    1:40   0.00   52.3    86    0.8   358     2.5   1009.1    0.00 
 178    1:50   0.00   51.7    87    0.7   348     2.9   1009.2    0.00 
 178    2:00   0.00   51.5    88    2.3    22     4.5   1009.2    0.00 
 178    2:10   0.00   51.8    88    2.3    63     4.1   1009.1    0.00 
 178    2:20   0.00   52.0    87    0.8    65     2.1   1009.1    0.00 
 178    2:30   0.00   51.6    86    0.5    48     2.2   1009.2    0.00 
 178    2:40   0.00   51.3    86    0.1    27     0.5   1009.2    0.00 
 178    2:50   0.00   50.6    87    0.4     3     1.5   1009.3    0.00 
 178    3:00   0.00   50.2    88    0.4     5     2.3   1009.4    0.00 
 178    3:10   0.00   50.1    89    1.2    28     3.6   1009.4    0.00 
 178    3:20   0.00   50.5    89    0.5    80     3.4   1009.4    0.00 
 178    3:30   0.00   50.6    89    1.5     8     3.4   1009.4    0.00 
 178    3:40   0.00   50.3    89    1.0    20     3.7   1009.4    0.00 
 178    3:50   0.00   50.0    89    1.2    21     2.8   1009.3    0.00 
 178    4:00   0.00   49.8    88    0.1     1     1.2   1009.4    0.00 
 178    4:10   0.00   49.5    88    0.8   345     3.7   1009.3    0.00 
 178    4:20   0.00   49.6    88    0.3    15     1.3   1009.3    0.00 
 178    4:30   0.00   49.6    89    0.6    63     2.0   1009.4    0.00 
 178    4:40   0.00   49.6    89    0.8     8     2.9   1009.5    0.00 
 178    4:50   0.01   49.7    88    0.5     2     2.7   1009.5    0.00 
 178    5:00   0.01   49.4    88    0.5    23     2.0   1009.4    0.00 
 178    5:10   0.01   49.4    88    0.4    69     1.7   1009.4    0.00 
 178    5:20   0.01   49.1    89    0.8   356     2.3   1009.5    0.00 
 178    5:30   0.01   49.1    89    0.4    29     1.8   1009.7    0.00 
 178    5:40   0.01   48.8    89    1.0     7     3.1   1009.6    0.00 
 178    5:50   0.01   49.7    90    0.9    71     3.4   1009.6    0.00 
 178    6:00   0.01   49.9    88    1.2     3     2.7   1009.6    0.00 
 178    6:10   0.01   49.7    88    0.8    23     2.6   1009.6    0.00 
 178    6:20   0.03   50.2    88    0.9    76     2.6   1009.8    0.00 
 178    6:30   0.03   52.2    88    0.8    51     2.3   1009.9    0.00 
 178    6:40   0.03   51.9    87    0.5    21     2.1   1009.9    0.00 
 178    6:50   0.03   51.0    87    0.9   352     1.9   1009.8    0.00 
 178    7:00   0.03   51.2    88    0.1    92     0.9   1009.8    0.00 
 178    7:10   0.03   51.8    88    0.1    28     1.0   1009.9    0.00 
 178    7:20   0.03   51.6    88    0.3   197     1.8   1010.0    0.00 
 178    7:30   0.04   51.9    89    0.2   151     1.0   1010.0    0.00 
 178    7:40   0.04   52.1    89    0.3   269     2.2   1010.0    0.00 
 178    7:50   0.03   52.1    90    0.6   228     2.2   1010.1    0.00 
 178    8:00   0.03   52.4    90    0.6   212     2.6   1010.2    0.00 
 178    8:10   0.04   52.6    90    0.8   219     2.9   1010.3    0.00 
 178    8:20   0.04   53.0    89    0.7   206     2.5   1010.4    0.00 
 178    8:30   0.04   53.2    88    1.4   186     3.2   1010.4    0.00 
 178    8:40   0.05   53.7    88    1.0   184     3.5   1010.5    0.00 
 178    8:50   0.06   53.7    86    1.8   183     4.2   1010.4    0.00 
 178    9:00   0.26   53.9    86    2.3   247     5.3   1010.5    0.00 
 178    9:10   0.61   55.1    84    2.2   216     4.1   1010.4    0.00 
 178    9:20   0.68   56.0    80    3.2   247     5.6   1010.2    0.00 
 178    9:30   0.71   56.5    79    3.7   249     7.1   1010.1    0.00 
 178    9:40   0.74   56.3    79    4.3   249     7.5   1010.1    0.00 
 178    9:50   0.76   56.0    80    4.1   250     7.7   1010.2    0.00 
 178   10:00   0.78   56.4    78    3.8   247     7.5   1010.2    0.00 
 178   10:10   0.80   56.8    77    3.4   259     7.1   1010.2    0.00 
 178   10:20   0.82   57.1    77    3.2   251     7.1   1010.2    0.00 
 178   10:30   0.84   58.2    74    2.8   258     7.1   1010.2    0.00 
 178   10:40   0.85   57.4    76    4.2   272     7.8   1010.3    0.00 
 178   10:50   0.86   57.1    76    3.8   269     7.4   1010.5    0.00 
 178   11:00   0.88   58.6    73    3.2   244     5.6   1010.4    0.00 
 178   11:10   0.90   59.1    72    3.2   251     5.7   1010.4    0.00 
 178   11:20   0.90   57.1    78    3.8   236     7.8   1010.5    0.00 
 178   11:30   0.91   57.9    75    3.3   237     7.3   1010.4    0.00 
 178   11:40   0.92   59.1    72    3.2   230     6.6   1010.4    0.00 
 178   11:50   0.93   58.4    74    3.1   232     6.3   1010.5    0.00 
 178   12:00   0.93   59.1    72    2.4   215     5.8   1010.4    0.00 
 178   12:10   0.93   60.4    69    2.3   212     5.0   1010.3    0.00 
 178   12:20   0.93   60.1    69    2.4   202     5.0   1010.3    0.00 
 178   12:30   0.93   61.8    66    1.6   207     3.4   1010.4    0.00 
 178   12:40   0.94   62.1    65    2.3   213     5.5   1010.4    0.00 
 178   12:50   0.93   61.2    69    2.3   215     5.4   1010.4    0.00 
 178   13:00   0.93   61.1    68    2.3   188     5.3   1010.3    0.00 
 178   13:10   0.92   61.0    68    2.2   244     6.3   1010.3    0.00 
 178   13:20   0.92   60.3    70    2.3   224     4.9   1010.2    0.00 
 178   13:30   0.91   60.0    71    2.4   210     5.0   1010.2    0.00 
 178   13:40   0.90   60.5    70    2.3   208     5.6   1010.2    0.00 
 178   13:50   0.89   60.7    70    2.3   212     5.8   1010.2    0.00 
 178   14:00   0.88   60.1    70    2.3   224     5.2   1010.2    0.00 
 178   14:10   0.86   60.4    70    2.8   256     6.1   1010.1    0.00 
 178   14:20   0.84   60.2    72    2.3   246     6.4   1010.1    0.00 
 178   14:30   0.83   60.5    69    3.4   237     6.6   1009.9    0.00 
 178   14:40   0.81   59.0    73    4.5   269     9.6   1009.7    0.00 
 178   14:50   0.78   58.8    73    4.0   248     8.3   1009.6    0.00 
 178   15:00   0.77   58.5    74    4.3   264     8.3   1009.5    0.00 
 178   15:10   0.74   59.1    73    3.5   267     6.7   1009.5    0.00 
 178   15:20   0.72   59.3    73    2.8   266     5.1   1009.5    0.00 
 178   15:30   0.70   60.9    69    2.3   274     5.0   1009.5    0.00 
 178   15:40   0.68   61.7    67    2.8   242     7.2   1009.5    0.00 
 178   15:50   0.65   61.4    67    3.8   264     8.6   1009.4    0.00 
 178   16:00   0.62   61.4    68    3.0   255     6.6   1009.4    0.00 
 178   16:10   0.59   60.6    70    2.2   244     5.4   1009.4    0.00 
 178   16:20   0.56   61.9    67    1.8   227     3.8   1009.4    0.00 
 178   16:30   0.53   64.5    62    1.4   224     3.4   1009.4    0.00 
 178   16:40   0.49   64.2    62    1.5   199     3.3   1009.4    0.00 
 178   16:50   0.46   64.2    62    1.5   201     3.3   1009.4    0.00 
 178   17:00   0.43   63.4    64    2.1   217     4.2   1009.4    0.00 
 178   17:10   0.40   62.9    65    1.6   215     3.4   1009.3    0.00 
 178   17:20   0.36   64.0    63    1.1   222     3.9   1009.4    0.00 
 178   17:30   0.23   63.6    63    0.9   255     3.7   1009.3    0.00 
 178   17:40   0.05   61.1    69    0.7   237     2.3   1009.3    0.00 

Return to Big Creek Reserve Entrance graphs page.


Western Regional Climate Center,wrcc@dri.edu